16°C Temp
15°C Dewpoint
94% Humidity
Temperature
10 KM/H
6 MPH
5 KTS
50°
North East

Wind Speed
Light Rain
Showers
Pressure 1013.92 (hPa) - 29.94 (in)
Visibility 6.2 (mi) - 10.0 (km)

Current Conditions
LEZL
Location 16(km)
Metar :LEZL 152100Z 05005KT 9999 -RA SCT005 SCT030 FEW040TCU 16/15 Q1014 TEMPO 4000 SHRA
Thu 15th April 22:00 pm

Airport
  Metar Aviation API Data Provided by https://www.checkwx.com/ PHP scripts by weather34.com ©2021